Houston, Texas
Traffic Map
Current Weather Conditions
Houston, Texas
Clear
Clear
68°
Feels Like: 68°
Wind Chill: 68° Ceiling: Unl
Heat Index: 68° Visibility: 10mi
Dew Point: 63° Wind: 5mph
Humidity: 83% Direction: 310° (NW)
Pressure: 29.72in Gusts: 0mph
Raw Report DataKMCJ 190115Z AUTO 31004KT 10SM CLR 20/17 A2972 RMK AO1
Traffic Incident Summary
Active as of:
Severity:
Category:
InformationThere was an issue retrieving the traffic information for this location. Please try a different location or try again shortly.
Advertisements
Track Severe Weather on mobile